Time;durP1;ratioP1;P1;durP2;ratioP2;P2;SDS_P1;SDS_P2;PMS_P1;PMS_P2;Temp;Humidity;BMP_temperature;BMP_pressure;BME280_temperature;BME280_humidity;BME280_pressure;Samples;Min_cycle;Max_cycle;Signal;HPM_P1;HPM_P2
2022/01/08 00:04:10;;;;;;;52.63;48.73;;;;;;;2.98;100.00;101517.66;2016466;71;32906;-71
2022/01/08 00:09:57;;;;;;;51.40;47.67;;;;;;;3.13;100.00;101518.72;2009133;71;33484;-75
2022/01/08 00:15:41;;;;;;;53.03;49.10;;;;;;;3.13;100.00;101526.95;1991206;71;32828;-72
2022/01/08 00:21:25;;;;;;;93.53;84.53;;;;;;;3.23;100.00;101523.20;2016330;71;32804;-72
2022/01/08 00:27:09;;;;;;;57.40;53.30;;;;;;;3.21;100.00;101506.10;2003767;71;32916;-73
2022/01/08 00:32:52;;;;;;;56.03;51.90;;;;;;;3.25;100.00;101520.25;2006236;71;32772;-71
2022/01/08 00:38:37;;;;;;;53.37;49.23;;;;;;;3.23;100.00;101529.23;2002150;71;33299;-73
2022/01/08 00:44:21;;;;;;;49.50;46.10;;;;;;;3.20;100.00;101526.41;1994988;71;32869;-72
2022/01/08 00:50:10;;;;;;;51.63;48.13;;;;;;;3.08;100.00;101509.77;2012737;71;32843;-71
2022/01/08 00:55:54;;;;;;;51.03;47.23;;;;;;;3.00;100.00;101514.14;1940891;74;33125;-72
2022/01/08 01:01:38;;;;;;;50.30;46.60;;;;;;;3.06;100.00;101497.34;2016518;71;32896;-74
2022/01/08 01:10:29;;;;;;;50.30;46.43;;;;;;;3.09;100.00;101488.13;2060966;69;33082;-72
2022/01/08 01:12:59;;;;;;;48.00;44.43;;;;;;;3.12;100.00;101490.98;1945177;73;26232;-72
2022/01/08 01:15:29;;;;;;;49.07;45.47;;;;;;;3.14;100.00;101488.31;1935680;73;26273;-71
2022/01/08 01:18:00;;;;;;;47.67;44.17;;;;;;;3.09;100.00;101490.03;1966977;72;26267;-73
2022/01/08 01:20:30;;;;;;;47.83;44.43;;;;;;;3.32;100.00;101482.60;1934444;73;26373;-72
2022/01/08 01:23:07;;;;;;;48.10;44.60;;;;;;;3.38;100.00;101489.97;1934310;73;26296;-71
2022/01/08 01:25:36;;;;;;;47.53;44.03;;;;;;;3.31;100.00;101489.15;1937467;74;26204;-73
2022/01/08 01:28:18;;;;;;;46.20;42.60;;;;;;;3.36;100.00;101487.44;1937182;74;26176;-74
2022/01/08 01:43:25;;;;;;;47.67;44.17;;;;;;;3.48;100.00;101455.96;2012971;71;32884;-74
2022/01/08 01:49:05;;;;;;;49.60;45.80;;;;;;;3.50;100.00;101460.19;2000590;71;33244;-74
2022/01/08 01:54:51;;;;;;;52.17;48.30;;;;;;;3.47;100.00;101442.77;1996970;71;33320;-74
2022/01/08 02:00:37;;;;;;;51.70;47.70;;;;;;;3.58;100.00;101461.28;2005691;71;33446;-71
2022/01/08 02:06:21;;;;;;;53.80;49.87;;;;;;;3.63;100.00;101460.08;2016697;71;32957;-71
2022/01/08 02:12:08;;;;;;;52.50;48.80;;;;;;;3.57;100.00;101453.25;2009475;71;33417;-73
2022/01/08 02:17:53;;;;;;;52.03;48.13;;;;;;;3.66;100.00;101445.88;2014665;71;32915;-71
2022/01/08 02:23:37;;;;;;;51.20;47.50;;;;;;;3.77;100.00;101433.30;2016338;71;32944;-73
2022/01/08 02:29:26;;;;;;;52.47;48.80;;;;;;;3.74;100.00;101428.26;2016451;71;32909;-72
2022/01/08 02:35:16;;;;;;;53.17;49.20;;;;;;;3.74;100.00;101404.06;1995180;71;33251;-74
2022/01/08 02:41:03;;;;;;;53.77;49.97;;;;;;;3.73;100.00;101400.47;1991391;71;33226;-74
2022/01/08 02:46:45;;;;;;;53.43;49.30;;;;;;;3.68;100.00;101395.66;2014729;71;33392;-72
2022/01/08 02:52:30;;;;;;;51.40;47.70;;;;;;;3.78;100.00;101405.29;1994612;71;33331;-71
2022/01/08 02:58:14;;;;;;;52.83;49.00;;;;;;;3.96;100.00;101395.69;1998649;71;32933;-72
2022/01/08 03:03:58;;;;;;;52.03;48.03;;;;;;;3.94;100.00;101381.33;2016392;71;32901;-71
2022/01/08 03:09:43;;;;;;;52.70;48.93;;;;;;;3.98;100.00;101371.59;2007178;71;32842;-73
2022/01/08 03:15:33;;;;;;;52.47;48.43;;;;;;;4.04;100.00;101361.03;2005522;71;33346;-71
2022/01/08 03:21:21;;;;;;;50.97;47.23;;;;;;;4.00;100.00;101343.31;2007763;71;32765;-72
2022/01/08 03:27:07;;;;;;;51.57;47.63;;;;;;;4.03;100.00;101345.59;2016512;71;32828;-73
2022/01/08 03:32:52;;;;;;;51.70;47.90;;;;;;;4.01;100.00;101339.51;2012935;71;33023;-74
2022/01/08 03:38:36;;;;;;;51.13;47.47;;;;;;;4.09;100.00;101333.70;2002459;71;32771;-75
2022/01/08 03:44:20;;;;;;;52.57;48.73;;;;;;;4.10;100.00;101307.36;2004203;71;32829;-72
2022/01/08 03:50:05;;;;;;;51.43;47.83;;;;;;;4.26;100.00;101290.74;2005950;71;32769;-73
2022/01/08 03:55:50;;;;;;;52.47;48.50;;;;;;;4.29;100.00;101294.92;2005758;71;32812;-73
2022/01/08 04:01:34;;;;;;;53.30;49.67;;;;;;;4.25;100.00;101275.84;1998787;71;32752;-74
2022/01/08 04:07:19;;;;;;;49.63;46.20;;;;;;;4.26;100.00;101258.28;2007877;71;32776;-73
2022/01/08 04:13:09;;;;;;;50.37;46.93;;;;;;;4.32;100.00;101227.92;2013213;71;33507;-72
2022/01/08 04:18:49;;;;;;;49.80;46.30;;;;;;;4.27;100.00;101211.84;1998575;71;32811;-72
2022/01/08 04:24:33;;;;;;;49.23;45.67;;;;;;;4.38;100.00;101227.53;2018189;71;32969;-72
2022/01/08 04:30:18;;;;;;;49.43;45.93;;;;;;;4.44;100.00;101210.09;1996988;71;32768;-72
2022/01/08 04:36:02;;;;;;;49.90;46.37;;;;;;;4.37;100.00;101192.31;2018214;71;32835;-73
2022/01/08 04:41:46;;;;;;;49.03;45.47;;;;;;;4.44;100.00;101169.68;1996787;71;32773;-72
2022/01/08 04:47:30;;;;;;;47.60;44.20;;;;;;;4.58;100.00;101177.15;2000612;71;33203;-71
2022/01/08 04:53:15;;;;;;;48.57;45.23;;;;;;;4.63;100.00;101166.80;1998719;71;33284;-73
2022/01/08 04:58:59;;;;;;;48.63;45.00;;;;;;;4.73;100.00;101150.02;1991268;71;32773;-74
2022/01/08 05:04:43;;;;;;;47.17;43.97;;;;;;;4.70;100.00;101128.49;2002103;71;33352;-74
2022/01/08 05:10:33;;;;;;;47.97;44.30;;;;;;;4.72;100.00;101104.31;2003819;71;32828;-71
2022/01/08 05:16:15;;;;;;;47.80;44.40;;;;;;;4.76;100.00;101093.12;1998782;71;33418;-72
2022/01/08 05:21:59;;;;;;;48.83;45.53;;;;;;;4.77;100.00;101089.30;1991442;71;32913;-72
2022/01/08 05:27:43;;;;;;;47.50;44.20;;;;;;;4.91;100.00;101078.87;1964750;72;32923;-74
2022/01/08 05:33:28;;;;;;;47.57;44.07;;;;;;;4.98;100.00;101086.44;2014648;71;32832;-73
2022/01/08 05:39:12;;;;;;;47.80;44.47;;;;;;;5.04;100.00;101075.31;2011216;71;33330;-71
2022/01/08 05:44:56;;;;;;;51.20;47.60;;;;;;;5.05;100.00;101056.84;2003722;71;33304;-71
2022/01/08 05:50:40;;;;;;;50.47;46.83;;;;;;;5.04;100.00;101057.42;2014618;71;32882;-74
2022/01/08 05:56:25;;;;;;;47.13;43.73;;;;;;;5.09;100.00;101045.67;2016532;71;32841;-72
2022/01/08 06:02:10;;;;;;;49.23;45.70;;;;;;;5.11;100.00;101039.91;2014700;71;33400;-73
2022/01/08 06:07:54;;;;;;;47.03;43.40;;;;;;;5.12;100.00;101023.16;2012868;71;33436;-74
2022/01/08 06:13:38;;;;;;;45.47;42.10;;;;;;;5.20;100.00;100995.22;1998366;71;32884;-72
2022/01/08 06:19:22;;;;;;;46.77;43.37;;;;;;;5.32;100.00;100980.84;2014770;71;33434;-73
2022/01/08 06:25:08;;;;;;;47.00;42.93;;;;;;;5.32;100.00;100971.75;2005794;71;33399;-74
2022/01/08 06:30:53;;;;;;;47.30;43.63;;;;;;;5.37;100.00;100956.69;2011290;71;33369;-74
2022/01/08 06:36:38;;;;;;;44.67;41.53;;;;;;;5.38;100.00;100935.80;2010766;71;32853;-74
2022/01/08 06:42:22;;;;;;;45.03;41.67;;;;;;;5.54;100.00;100920.36;2016376;71;33457;-72
2022/01/08 06:48:07;;;;;;;45.93;42.30;;;;;;;5.64;100.00;100910.05;2016522;70;32866;-72
2022/01/08 06:53:51;;;;;;;45.40;41.90;;;;;;;5.92;100.00;100904.44;1997016;71;32850;-71
2022/01/08 06:59:37;;;;;;;46.93;42.73;;;;;;;6.20;100.00;100880.03;2002267;71;32828;-78
2022/01/08 07:05:21;;;;;;;47.53;43.50;;;;;;;6.34;100.00;100861.98;2014910;71;32846;-77
2022/01/08 07:11:05;;;;;;;46.37;42.50;;;;;;;6.42;100.00;100849.69;1991538;71;32810;-74
2022/01/08 07:16:50;;;;;;;44.53;41.10;;;;;;;6.49;100.00;100840.66;1995273;71;33283;-73
2022/01/08 07:22:35;;;;;;;46.13;42.33;;;;;;;6.66;100.00;100818.78;1999984;71;32903;-73
2022/01/08 07:28:20;;;;;;;47.17;43.40;;;;;;;6.63;100.00;100804.67;1996726;71;32783;-73
2022/01/08 07:34:04;;;;;;;45.47;41.67;;;;;;;6.74;100.00;100788.48;2005387;71;33384;-73
2022/01/08 07:39:49;;;;;;;42.93;39.20;;;;;;;6.83;100.00;100791.06;2011764;71;32843;-73
2022/01/08 07:45:33;;;;;;;42.73;38.87;;;;;;;6.99;100.00;100783.19;2009705;70;32847;-74
2022/01/08 07:51:17;;;;;;;43.77;39.70;;;;;;;6.99;100.00;100759.72;1994584;71;32873;-73
2022/01/08 07:57:01;;;;;;;44.90;40.67;;;;;;;7.10;100.00;100741.31;1991536;71;33362;-76
2022/01/08 08:02:47;;;;;;;43.03;39.13;;;;;;;7.15;100.00;100717.30;2007776;71;32870;-74
2022/01/08 08:08:31;;;;;;;42.63;38.23;;;;;;;7.32;100.00;100705.53;1991353;71;33326;-72
2022/01/08 08:14:15;;;;;;;42.97;38.97;;;;;;;7.42;100.00;100688.73;2018133;71;32848;-73
2022/01/08 08:19:59;;;;;;;44.13;39.57;;;;;;;7.52;100.00;100677.20;1998224;71;32914;-74
2022/01/08 08:25:43;;;;;;;41.87;37.53;;;;;;;7.65;100.00;100644.91;2014752;71;32906;-73
2022/01/08 08:31:28;;;;;;;42.07;37.87;;;;;;;7.78;100.00;100629.20;2002236;71;32841;-74
2022/01/08 08:37:12;;;;;;;42.10;37.67;;;;;;;7.78;100.00;100613.16;2000370;71;32770;-73
2022/01/08 08:42:57;;;;;;;41.07;36.63;;;;;;;7.98;100.00;100601.30;2016590;71;32886;-72
2022/01/08 08:48:43;;;;;;;42.13;37.73;;;;;;;8.12;100.00;100578.37;2014751;70;32841;-73
2022/01/08 08:54:27;;;;;;;43.50;38.10;;;;;;;8.26;100.00;100566.75;2000173;71;32914;-74
2022/01/08 09:00:17;;;;;;;45.80;41.40;;;;;;;8.38;100.00;100552.11;1996950;71;32880;-73
2022/01/08 09:06:02;;;;;;;47.40;42.40;;;;;;;8.53;100.00;100536.30;1998656;71;32786;-74
2022/01/08 09:11:47;;;;;;;45.57;40.90;;;;;;;8.68;100.00;100524.38;2007815;71;32962;-75
2022/01/08 09:17:31;;;;;;;47.20;42.97;;;;;;;8.76;100.00;100504.42;2015155;71;32910;-72
2022/01/08 09:23:15;;;;;;;45.83;41.57;;;;;;;8.78;100.00;100492.49;2006172;71;32784;-75
2022/01/08 09:28:59;;;;;;;47.00;42.70;;;;;;;8.89;100.00;100474.74;2007996;71;33349;-72
2022/01/08 09:34:44;;;;;;;46.73;42.30;;;;;;;8.97;100.00;100456.70;1994553;70;32824;-73
2022/01/08 09:40:28;;;;;;;50.10;45.40;;;;;;;9.09;100.00;100440.01;2018190;71;32835;-73
2022/01/08 09:46:15;;;;;;;47.93;43.33;;;;;;;9.12;100.00;100415.05;1994445;71;32847;-73
2022/01/08 09:52:03;;;;;;;48.57;44.47;;;;;;;9.25;100.00;100407.48;2003875;71;33338;-73
2022/01/08 09:57:46;;;;;;;46.20;41.77;;;;;;;9.45;100.00;100387.13;1996998;71;32826;-73
2022/01/08 10:03:33;;;;;;;45.63;41.77;;;;;;;9.38;100.00;100379.68;2009188;71;32843;-73
2022/01/08 10:09:17;;;;;;;47.77;43.13;;;;;;;9.47;100.00;100350.23;2012724;71;32901;-72
2022/01/08 10:21:20;;;;;;;41.20;37.37;;;;;;;9.61;100.00;100305.47;2016369;71;32816;-73
2022/01/08 10:27:08;;;;;;;41.87;38.47;;;;;;;9.59;100.00;100284.95;2011253;70;32815;-72
2022/01/08 10:32:58;;;;;;;43.83;40.10;;;;;;;9.66;100.00;100258.29;2014743;71;32969;-76
2022/01/08 10:39:16;;;;;;;42.20;38.30;;;;;;;9.72;100.00;100248.77;1991517;71;32835;-73
2022/01/08 10:45:04;;;;;;;44.00;40.27;;;;;;;9.74;100.00;100234.06;2016427;71;32833;-74
2022/01/08 10:50:48;;;;;;;43.07;39.43;;;;;;;9.80;100.00;100212.06;2000045;71;32916;-73
2022/01/08 10:56:34;;;;;;;40.93;37.83;;;;;;;9.79;100.00;100188.25;2002310;71;32836;-73
2022/01/08 11:02:28;;;;;;;39.93;36.80;;;;;;;9.71;100.00;100130.67;2009351;71;32946;-74
2022/01/08 11:08:17;;;;;;;39.23;36.40;;;;;;;9.91;100.00;100137.33;2010903;71;32955;-75
2022/01/08 11:14:07;;;;;;;40.73;37.53;;;;;;;9.87;100.00;100111.87;2012915;71;33501;-75
2022/01/08 11:19:53;;;;;;;38.80;35.57;;;;;;;9.88;100.00;100081.05;2012720;71;32807;-75
2022/01/08 11:25:39;;;;;;;38.83;35.57;;;;;;;9.97;100.00;100065.38;2014806;71;33316;-74
2022/01/08 11:31:28;;;;;;;39.50;36.30;;;;;;;10.06;100.00;100041.38;2010893;71;32927;-74
2022/01/08 11:37:14;;;;;;;38.97;35.87;;;;;;;10.16;100.00;100022.95;2004218;71;33027;-72
2022/01/08 11:43:02;;;;;;;37.90;35.10;;;;;;;10.11;100.00;99998.86;2002280;71;32743;-73
2022/01/08 11:48:51;;;;;;;37.03;34.10;;;;;;;10.17;100.00;99986.59;2009632;71;32814;-75
2022/01/08 11:54:44;;;;;;;41.23;38.10;;;;;;;10.22;100.00;99977.35;2012928;71;32919;-76
2022/01/08 12:00:54;;;;;;;37.07;34.57;;;;;;;10.25;100.00;99940.09;1994921;71;32940;-72
2022/01/08 12:06:44;;;;;;;37.17;34.60;;;;;;;10.33;100.00;99928.28;2002273;71;32938;-74
2022/01/08 12:12:57;;;;;;;38.87;36.20;;;;;;;10.28;100.00;99916.45;2003824;71;32805;-73
2022/01/08 12:19:02;;;;;;;38.90;35.93;;;;;;;10.38;100.00;99904.60;2009336;71;32837;-73
2022/01/08 12:24:52;;;;;;;43.37;40.37;;;;;;;10.35;100.00;99876.64;2007573;71;32893;-73
2022/01/08 12:30:40;;;;;;;37.10;34.40;;;;;;;10.35;100.00;99802.52;1996820;71;32759;-74
2022/01/08 12:36:35;;;;;;;36.83;34.33;;;;;;;10.37;100.00;99796.64;2011479;71;32915;-73
2022/01/08 12:42:42;;;;;;;37.30;34.90;;;;;;;10.48;100.00;99785.00;2018061;71;32883;-74
2022/01/08 12:48:35;;;;;;;37.03;34.43;;;;;;;10.36;100.00;99775.00;2012964;71;32817;-72
2022/01/08 12:54:21;;;;;;;37.77;35.30;;;;;;;10.44;100.00;99759.00;1998804;71;33266;-73
2022/01/08 13:00:08;;;;;;;35.80;33.33;;;;;;;10.46;100.00;99760.09;1994915;71;32740;-74
2022/01/08 13:06:02;;;;;;;35.53;33.13;;;;;;;10.40;100.00;99717.73;2011035;71;32801;-73
2022/01/08 13:11:48;;;;;;;36.50;34.20;;;;;;;10.42;100.00;99700.77;2003686;71;33284;-71
2022/01/08 13:17:34;;;;;;;35.43;32.97;;;;;;;10.37;100.00;99694.77;1991352;71;32742;-74
2022/01/08 13:23:19;;;;;;;36.87;34.37;;;;;;;10.55;100.00;99687.42;1991515;71;33296;-74
2022/01/08 13:29:27;;;;;;;34.97;32.37;;;;;;;10.45;100.00;99677.94;2009367;71;33248;-73
2022/01/08 13:35:18;;;;;;;38.23;35.33;;;;;;;10.49;100.00;99670.05;2005587;71;33380;-73
2022/01/08 13:41:07;;;;;;;36.80;34.30;;;;;;;10.48;100.00;99639.85;1991258;71;32735;-73
2022/01/08 13:47:24;;;;;;;37.50;35.00;;;;;;;10.50;100.00;99615.36;2009230;71;32919;-74
2022/01/08 13:53:12;;;;;;;34.70;32.30;;;;;;;10.64;100.00;99608.36;1991174;71;32798;-73
2022/01/08 13:59:07;;;;;;;35.67;33.53;;;;;;;10.68;100.00;99590.75;2009693;71;32787;-72
2022/01/08 14:04:56;;;;;;;37.10;34.30;;;;;;;10.77;100.00;99584.69;2011499;71;32794;-74
2022/01/08 14:10:53;;;;;;;38.70;36.10;;;;;;;10.80;100.00;99566.55;2009058;71;32920;-74
2022/01/08 14:16:41;;;;;;;37.77;35.27;;;;;;;10.72;100.00;99544.55;2000492;71;32831;-73
2022/01/08 14:22:27;;;;;;;36.30;33.90;;;;;;;10.74;100.00;99545.03;2000460;71;32786;-73
2022/01/08 14:28:25;;;;;;;40.40;37.63;;;;;;;10.76;100.00;99500.28;2014746;71;32910;-73
2022/01/08 14:34:24;;;;;;;40.07;37.27;;;;;;;10.77;100.00;99492.22;2005320;71;32868;-74
2022/01/08 14:40:23;;;;;;;40.90;37.80;;;;;;;10.77;100.00;99485.27;2003488;71;32884;-72
2022/01/08 14:46:15;;;;;;;39.63;36.80;;;;;;;10.75;100.00;99471.69;2000626;70;32758;-73
2022/01/08 14:52:00;;;;;;;41.13;38.37;;;;;;;10.74;100.00;99465.88;2002507;70;32846;-73
2022/01/08 14:57:45;;;;;;;44.03;40.93;;;;;;;10.72;100.00;99448.73;2014819;71;32846;-74
2022/01/08 15:03:31;;;;;;;47.73;44.13;;;;;;;10.72;100.00;99433.47;2003618;71;33280;-73
2022/01/08 15:09:16;;;;;;;45.03;41.70;;;;;;;10.68;100.00;99416.38;1996856;71;32769;-73
2022/01/08 15:15:03;;;;;;;45.60;42.10;;;;;;;10.65;100.00;99398.98;1994830;71;32901;-73
2022/01/08 15:20:49;;;;;;;43.17;39.77;;;;;;;10.67;100.00;99400.84;2013343;71;33260;-73
2022/01/08 15:26:34;;;;;;;46.50;42.70;;;;;;;10.66;100.00;99395.86;1994168;71;32914;-73
2022/01/08 15:32:19;;;;;;;46.13;42.30;;;;;;;10.65;100.00;99389.26;1991303;71;32897;-74
2022/01/08 15:38:05;;;;;;;47.10;43.27;;;;;;;10.65;100.00;99399.80;2000550;71;33323;-73
2022/01/08 15:43:49;;;;;;;47.70;42.93;;;;;;;10.66;100.00;99413.91;2005328;71;32911;-72
2022/01/08 15:49:33;;;;;;;48.73;44.13;;;;;;;10.53;100.00;99420.38;2009881;71;33381;-73
2022/01/08 15:55:19;;;;;;;54.30;49.67;;;;;;;10.49;100.00;99420.20;2003814;70;32950;-70
2022/01/08 16:01:04;;;;;;;48.20;44.30;;;;;;;10.47;100.00;99409.19;2018218;71;32905;-71
2022/01/08 16:06:52;;;;;;;52.03;47.50;;;;;;;10.26;100.00;99410.31;2014755;71;32833;-73
2022/01/08 16:12:36;;;;;;;50.07;45.70;;;;;;;10.13;100.00;99415.34;2014970;71;33359;-71
2022/01/08 16:18:22;;;;;;;50.13;45.80;;;;;;;10.07;100.00;99406.89;2009353;71;33371;-70
2022/01/08 16:24:07;;;;;;;51.70;47.30;;;;;;;10.02;100.00;99399.52;2014775;71;32825;-70
2022/01/08 16:29:51;;;;;;;51.93;47.33;;;;;;;9.95;100.00;99401.10;2000561;71;32762;-70
2022/01/08 16:35:36;;;;;;;51.60;46.90;;;;;;;9.90;100.00;99398.45;2013034;71;32952;-73
2022/01/08 16:41:21;;;;;;;50.93;46.47;;;;;;;9.87;100.00;99404.08;2002204;71;32777;-69
2022/01/08 16:47:07;;;;;;;56.10;51.27;;;;;;;9.81;100.00;99405.33;2001987;71;34592;-74
2022/01/08 16:52:51;;;;;;;50.80;46.50;;;;;;;9.71;100.00;99402.83;2011561;71;32873;-69
2022/01/08 16:58:36;;;;;;;52.27;48.00;;;;;;;9.61;100.00;99401.67;1996979;71;32769;-68
2022/01/08 17:04:21;;;;;;;49.90;45.67;;;;;;;9.63;100.00;99402.77;2011123;71;32885;-72
2022/01/08 17:10:07;;;;;;;51.83;47.97;;;;;;;9.51;100.00;99409.66;1999920;71;32950;-70
2022/01/08 17:15:52;;;;;;;52.47;48.13;;;;;;;9.49;100.00;99408.34;1998229;71;32889;-70
2022/01/08 17:21:37;;;;;;;50.47;46.37;;;;;;;9.44;100.00;99438.38;1996830;71;32901;-71
2022/01/08 17:27:22;;;;;;;48.83;44.67;;;;;;;9.36;100.00;99453.55;1974187;71;33506;-73
2022/01/08 17:33:06;;;;;;;51.37;47.10;;;;;;;9.26;100.00;99467.05;2004116;71;32869;-71
2022/01/08 17:38:51;;;;;;;54.03;50.13;;;;;;;9.18;100.00;99461.42;2018524;71;33306;-70
2022/01/08 17:44:36;;;;;;;49.43;45.43;;;;;;;9.09;100.00;99460.77;2000521;71;32767;-73
2022/01/08 17:50:23;;;;;;;52.83;48.13;;;;;;;9.12;100.00;99473.16;2000010;71;32866;-74
2022/01/08 17:56:09;;;;;;;48.30;44.20;;;;;;;9.07;100.00;99469.93;2011287;71;33314;-76
2022/01/08 18:02:03;;;;;;;50.17;46.00;;;;;;;9.04;100.00;99466.41;1998408;71;32966;-72
2022/01/08 18:07:48;;;;;;;49.73;45.43;;;;;;;9.09;100.00;99471.84;2004538;71;32848;-70
2022/01/08 18:13:32;;;;;;;51.50;47.20;;;;;;;9.06;100.00;99484.94;2016935;71;32839;-73
2022/01/08 18:19:17;;;;;;;51.70;47.13;;;;;;;9.04;100.00;99491.33;1995353;71;32790;-72
2022/01/08 18:25:01;;;;;;;50.33;45.53;;;;;;;9.03;100.00;99507.69;2014844;71;32915;-71
2022/01/08 18:30:47;;;;;;;48.80;44.30;;;;;;;8.95;100.00;99519.48;2013273;71;33449;-71
2022/01/08 18:36:32;;;;;;;49.93;46.00;;;;;;;9.03;100.00;99513.22;1991787;71;32877;-70
2022/01/08 18:42:16;;;;;;;51.60;47.00;;;;;;;9.03;100.00;99529.84;2013542;71;32945;-72
2022/01/08 18:48:00;;;;;;;52.87;47.97;;;;;;;8.96;100.00;99537.74;2002665;71;32847;-71
2022/01/08 18:53:45;;;;;;;57.63;52.53;;;;;;;8.92;100.00;99539.48;2015133;71;32813;-72
2022/01/08 18:59:30;;;;;;;51.30;46.53;;;;;;;8.91;100.00;99549.47;2014994;71;32936;-71
2022/01/08 19:05:15;;;;;;;51.27;45.97;;;;;;;8.92;100.00;99551.13;1998727;71;32986;-72
2022/01/08 19:11:00;;;;;;;49.43;45.17;;;;;;;8.82;100.00;99552.69;1997215;71;33322;-70
2022/01/08 19:16:47;;;;;;;45.90;42.23;;;;;;;8.75;100.00;99561.41;2013681;71;32826;-70
2022/01/08 19:22:32;;;;;;;48.20;44.07;;;;;;;8.74;100.00;99552.01;2005932;71;33290;-69
2022/01/08 19:28:21;;;;;;;42.90;39.67;;;;;;;8.59;100.00;99558.09;1995449;71;32966;-71
2022/01/08 19:34:05;;;;;;;41.47;38.10;;;;;;;8.59;100.00;99570.55;2013343;71;32846;-72
2022/01/08 19:39:50;;;;;;;41.37;38.23;;;;;;;8.54;100.00;99575.34;2002463;71;32922;-70
2022/01/08 19:45:34;;;;;;;44.03;40.83;;;;;;;8.56;100.00;99578.61;1991748;71;32882;-73
2022/01/08 19:51:19;;;;;;;42.27;39.13;;;;;;;8.48;100.00;99584.28;2009916;71;33309;-73
2022/01/08 19:57:06;;;;;;;41.43;38.20;;;;;;;8.42;100.00;99582.75;2004014;71;32921;-72
2022/01/08 20:02:51;;;;;;;44.20;40.70;;;;;;;8.30;100.00;99587.89;1998745;71;32855;-73
2022/01/08 20:08:35;;;;;;;43.13;39.80;;;;;;;8.29;100.00;99586.28;2011735;71;33325;-71
2022/01/08 20:14:19;;;;;;;45.03;41.90;;;;;;;8.28;100.00;99586.53;2015241;71;32957;-71
2022/01/08 20:20:05;;;;;;;46.10;42.80;;;;;;;8.18;100.00;99588.89;2018542;71;32836;-71
2022/01/08 20:25:51;;;;;;;50.10;46.40;;;;;;;8.01;100.00;99621.78;2000840;71;33354;-71
2022/01/08 20:31:36;;;;;;;46.27;43.30;;;;;;;7.63;100.00;99612.63;2005899;71;32833;-71
2022/01/08 20:37:20;;;;;;;47.07;44.10;;;;;;;7.38;100.00;99615.15;2004310;71;33341;-72
2022/01/08 20:43:04;;;;;;;49.47;46.00;;;;;;;7.14;100.00;99612.40;1997350;71;32753;-72
2022/01/08 20:48:50;;;;;;;47.10;44.03;;;;;;;7.09;100.00;99626.25;2004771;71;33303;-70
2022/01/08 20:54:35;;;;;;;46.60;43.30;;;;;;;7.00;100.00;99633.52;2015036;71;32847;-74
2022/01/08 21:00:20;;;;;;;48.67;45.77;;;;;;;6.91;100.00;99638.02;1997266;71;33331;-75
2022/01/08 21:06:04;;;;;;;49.53;45.93;;;;;;;6.88;100.00;99654.34;2015140;71;32990;-70
2022/01/08 21:11:48;;;;;;;45.63;42.57;;;;;;;6.85;100.00;99655.73;2016949;71;33310;-75
2022/01/08 21:17:33;;;;;;;43.00;39.80;;;;;;;6.79;100.00;99662.42;2008614;71;33314;-70
2022/01/08 21:23:20;;;;;;;42.27;39.33;;;;;;;6.83;100.00;99680.05;2016775;71;32844;-70
2022/01/08 21:29:09;;;;;;;41.63;39.00;;;;;;;6.83;100.00;99681.43;1995331;71;32884;-74
2022/01/08 21:34:56;;;;;;;45.07;42.37;;;;;;;6.73;100.00;99701.65;2002554;71;32888;-73
2022/01/08 21:40:41;;;;;;;42.80;39.97;;;;;;;6.74;100.00;99706.06;2004619;71;33275;-71
2022/01/08 21:46:25;;;;;;;41.73;39.00;;;;;;;6.65;100.00;99716.06;1991722;71;32842;-70
2022/01/08 21:52:10;;;;;;;42.53;39.73;;;;;;;6.62;100.00;99716.64;1997239;71;32847;-69
2022/01/08 21:57:54;;;;;;;45.47;42.40;;;;;;;6.62;100.00;99726.85;2011367;71;33014;-69
2022/01/08 22:03:39;;;;;;;47.13;44.00;;;;;;;6.48;100.00;99723.91;1997135;71;33351;-70
2022/01/08 22:09:23;;;;;;;46.07;43.17;;;;;;;6.38;100.00;99733.06;2018687;71;33319;-69
2022/01/08 22:15:10;;;;;;;47.67;44.47;;;;;;;6.24;100.00;99733.44;2010043;71;32883;-71
2022/01/08 22:20:54;;;;;;;46.93;43.73;;;;;;;6.13;100.00;99742.02;2006222;71;32803;-72
2022/01/08 22:26:39;;;;;;;44.30;41.73;;;;;;;6.14;100.00;99757.46;1990991;71;32797;-72
2022/01/08 22:32:23;;;;;;;46.80;43.63;;;;;;;6.13;100.00;99758.56;1998679;71;32849;-72
2022/01/08 22:38:07;;;;;;;45.60;42.90;;;;;;;6.04;100.00;99760.25;2013357;71;33348;-71
2022/01/08 22:43:52;;;;;;;46.50;43.50;;;;;;;5.98;100.00;99770.50;2018568;71;32904;-71
2022/01/08 22:49:36;;;;;;;48.47;44.97;;;;;;;5.95;100.00;99771.03;2011841;71;32781;-73
2022/01/08 22:55:21;;;;;;;45.07;42.23;;;;;;;5.96;100.00;99783.72;2007849;71;32902;-72
2022/01/08 23:01:05;;;;;;;46.00;43.03;;;;;;;5.98;100.00;99805.49;2006247;71;32912;-69
2022/01/08 23:06:55;;;;;;;47.33;44.33;;;;;;;5.86;100.00;99809.91;2010002;71;32847;-72
2022/01/08 23:12:40;;;;;;;45.47;42.67;;;;;;;5.82;100.00;99817.89;2008221;71;32867;-67
2022/01/08 23:18:26;;;;;;;45.53;42.33;;;;;;;5.81;100.00;99827.83;2017229;71;33314;-71
2022/01/08 23:24:12;;;;;;;48.67;45.47;;;;;;;5.89;100.00;99830.88;2008290;71;32780;-69
2022/01/08 23:29:57;;;;;;;49.00;46.10;;;;;;;5.77;100.00;99841.89;2006046;71;32833;-71
2022/01/08 23:35:42;;;;;;;46.50;43.40;;;;;;;5.71;100.00;99847.13;2005994;71;32845;-68
2022/01/08 23:41:26;;;;;;;47.00;43.77;;;;;;;5.74;100.00;99843.80;1997132;71;32771;-69
2022/01/08 23:47:10;;;;;;;48.87;45.77;;;;;;;5.63;100.00;99849.89;2001068;71;33336;-70
2022/01/08 23:52:55;;;;;;;47.90;44.73;;;;;;;5.62;100.00;99845.48;2009879;71;32887;-71
2022/01/08 23:58:40;;;;;;;49.00;46.07;;;;;;;5.54;100.00;99850.72;2004640;71;32857;-68
